Time;durP1;ratioP1;P1;durP2;ratioP2;P2;SDS_P1;SDS_P2;PMS_P1;PMS_P2;Temp;Humidity;BMP_temperature;BMP_pressure;BME280_temperature;BME280_humidity;BME280_pressure;Samples;Min_cycle;Max_cycle;Signal;HPM_P1;HPM_P2
2023/09/26 00:02:00;;;;;;;4.50;3.10;;;;;;;15.58;92.75;100125.31;102669;1293;599432;-22
2023/09/26 00:04:29;;;;;;;7.20;4.30;;;;;;;16.00;90.78;100123.33;104844;1264;61168;-22
2023/09/26 00:07:00;;;;;;;6.60;4.50;;;;;;;16.20;88.58;100123.70;104906;1264;61088;-22
2023/09/26 00:09:29;;;;;;;9.90;5.00;;;;;;;16.09;88.98;100124.30;104904;1267;71258;-22
2023/09/26 00:11:57;;;;;;;7.60;5.30;;;;;;;15.92;89.73;100123.14;105135;1262;73094;-22
2023/09/26 00:14:27;;;;;;;10.50;5.60;;;;;;;15.78;90.48;100128.53;103506;1260;2923444;-22
2023/09/26 00:16:55;;;;;;;3.90;3.50;;;;;;;15.47;93.00;100128.54;105172;1260;61138;-22
2023/09/26 00:19:23;;;;;;;5.60;3.90;;;;;;;15.86;92.05;100121.23;105218;1260;61678;-22
2023/09/26 00:21:51;;;;;;;4.70;3.90;;;;;;;16.16;89.24;100118.92;105212;1263;70990;-22
2023/09/26 00:24:19;;;;;;;5.50;4.10;;;;;;;16.25;88.18;100116.27;105308;1259;74300;-22
2023/09/26 00:26:46;;;;;;;8.30;5.60;;;;;;;16.04;88.92;100117.19;105226;1260;71420;-22
2023/09/26 00:29:14;;;;;;;6.90;5.20;;;;;;;15.75;90.35;100118.27;105207;1265;61058;-22
2023/09/26 00:39:42;;;;;;;6.80;4.60;;;;;;;16.27;87.10;100111.83;102471;1295;615203;-23
2023/09/26 00:42:09;;;;;;;4.90;4.00;;;;;;;16.02;87.39;100112.78;105145;1264;61160;-23
2023/09/26 00:44:36;;;;;;;4.00;3.60;;;;;;;15.87;86.02;100115.83;105169;1264;61171;-23
2023/09/26 00:47:04;;;;;;;3.90;3.00;;;;;;;15.67;86.51;100115.29;104937;1264;72618;-24
2023/09/26 00:49:31;;;;;;;5.90;3.10;;;;;;;15.82;89.53;100112.45;104790;1263;74321;-24
2023/09/26 00:51:59;;;;;;;6.00;3.90;;;;;;;16.25;86.93;100111.17;103003;1264;3006868;-24
2023/09/26 00:54:27;;;;;;;6.60;4.10;;;;;;;16.26;85.04;100108.27;105168;1263;61072;-23
2023/09/26 00:56:55;;;;;;;7.00;4.60;;;;;;;16.06;84.81;100107.57;105117;1266;61147;-24
2023/09/26 00:59:22;;;;;;;5.80;4.90;;;;;;;15.79;83.68;100102.21;104974;1264;72077;-24
2023/09/26 01:01:50;;;;;;;3.40;2.70;;;;;;;15.47;82.59;100107.02;104906;1264;73415;-24
2023/09/26 01:04:18;;;;;;;1.70;1.60;;;;;;;15.19;83.95;100106.39;105132;1262;71463;-24
2023/09/26 01:06:46;;;;;;;3.20;2.40;;;;;;;15.58;85.07;100106.96;105166;1266;61045;-24
2023/09/26 01:09:14;;;;;;;4.40;2.60;;;;;;;16.02;83.26;100105.15;104988;1266;61162;-24
2023/09/26 01:11:41;;;;;;;5.40;4.10;;;;;;;16.00;81.54;100106.02;104974;1266;73077;-24
2023/09/26 01:14:08;;;;;;;4.30;3.60;;;;;;;15.75;80.77;100105.16;104974;1264;74315;-24
2023/09/26 01:16:35;;;;;;;6.30;4.70;;;;;;;15.46;82.13;100106.90;105120;1267;72661;-24
2023/09/26 01:19:02;;;;;;;6.30;4.60;;;;;;;15.06;88.74;100111.59;105060;1264;61070;-24
2023/09/26 01:21:32;;;;;;;3.30;3.00;;;;;;;14.80;91.76;100105.08;105105;1262;61247;-24
2023/09/26 01:23:59;;;;;;;5.40;4.20;;;;;;;15.12;91.38;100111.13;104862;1264;73109;-24
2023/09/26 01:26:34;;;;;;;12.70;8.70;;;;;;;15.55;88.67;100112.61;104997;1264;74190;-23
2023/09/26 01:29:01;;;;;;;19.90;13.60;;;;;;;15.50;87.54;100113.17;104988;1263;72619;-24
2023/09/26 01:31:28;;;;;;;8.90;5.60;;;;;;;15.33;87.99;100111.30;105004;1267;61132;-23
2023/09/26 01:33:56;;;;;;;5.00;4.10;;;;;;;15.17;85.56;100111.06;104496;1268;61145;-24
2023/09/26 01:36:26;;;;;;;5.20;3.70;;;;;;;14.95;84.39;100107.81;105101;1264;73557;-23
2023/09/26 01:38:54;;;;;;;8.40;5.10;;;;;;;14.73;84.04;100104.04;105016;1264;75859;-23
2023/09/26 01:41:22;;;;;;;10.50;7.20;;;;;;;15.07;86.13;100110.98;105014;1267;72487;-23
2023/09/26 01:43:50;;;;;;;12.80;9.20;;;;;;;15.29;86.97;100112.13;104831;1267;61069;-24
2023/09/26 01:46:18;;;;;;;12.70;8.20;;;;;;;15.14;88.54;100112.90;105186;1269;61119;-23
2023/09/26 01:48:46;;;;;;;8.00;6.50;;;;;;;15.06;88.67;100113.23;104887;1270;71575;-24
2023/09/26 01:51:13;;;;;;;10.30;6.40;;;;;;;14.77;90.11;100111.18;104892;1263;73961;-23
2023/09/26 01:53:41;;;;;;;6.80;4.80;;;;;;;14.59;91.14;100107.77;105259;1260;72420;-24
2023/09/26 01:56:08;;;;;;;7.00;4.10;;;;;;;15.00;90.10;100107.61;105199;1260;61129;-24
2023/09/26 01:59:27;;;;;;;5.60;4.20;;;;;;;15.55;85.29;100103.69;102600;1292;600953;-22
2023/09/26 02:01:54;;;;;;;6.20;4.60;;;;;;;15.40;85.02;100105.84;104855;1267;61173;-22
2023/09/26 02:04:22;;;;;;;7.80;4.80;;;;;;;15.13;87.16;100102.18;104849;1271;61244;-22
2023/09/26 02:06:50;;;;;;;8.40;5.40;;;;;;;14.89;87.60;100099.39;104818;1267;71016;-22
2023/09/26 02:09:18;;;;;;;2.90;2.60;;;;;;;14.68;87.17;100093.74;104745;1267;74277;-22
2023/09/26 02:19:25;;;;;;;7.90;5.00;;;;;;;14.86;88.90;100110.67;102560;1292;599954;-22
2023/09/26 02:21:53;;;;;;;6.90;4.60;;;;;;;14.75;89.94;100116.64;104823;1266;61085;-21
2023/09/26 02:24:21;;;;;;;3.80;3.00;;;;;;;14.72;90.00;100116.20;104830;1265;61164;-22
2023/09/26 02:26:49;;;;;;;6.40;4.10;;;;;;;15.18;89.46;100117.64;104848;1265;72285;-22
2023/09/26 02:36:59;;;;;;;7.70;5.80;;;;;;;15.55;84.98;100106.51;102682;1294;600173;-22
2023/09/26 02:39:27;;;;;;;7.90;3.80;;;;;;;15.35;85.89;100110.07;104842;1269;61289;-21
2023/09/26 02:41:55;;;;;;;7.30;4.10;;;;;;;15.70;85.96;100105.52;104848;1269;61177;-22
2023/09/26 02:44:22;;;;;;;11.20;4.80;;;;;;;16.18;83.89;100103.42;104861;1266;71045;-22
2023/09/26 02:46:50;;;;;;;7.80;5.00;;;;;;;16.24;83.70;100103.40;104902;1271;73213;-22
2023/09/26 02:49:18;;;;;;;6.60;5.30;;;;;;;16.08;84.41;100106.88;104861;1272;72653;-22
2023/09/26 02:51:46;;;;;;;8.90;5.60;;;;;;;15.85;85.43;100107.64;102841;1269;2899538;-21
2023/09/26 02:54:13;;;;;;;3.80;3.40;;;;;;;15.59;87.21;100110.35;105066;1268;61234;-21
2023/09/26 02:56:41;;;;;;;4.20;3.30;;;;;;;15.82;87.83;100108.21;104986;1269;72176;-22
2023/09/26 02:59:09;;;;;;;5.00;3.50;;;;;;;16.13;86.11;100108.20;105005;1269;74354;-22
2023/09/26 03:01:36;;;;;;;5.70;4.10;;;;;;;16.12;86.07;100107.90;105014;1264;72613;-21
2023/09/26 03:04:05;;;;;;;5.00;4.40;;;;;;;15.90;86.31;100102.96;104886;1268;61362;-21
2023/09/26 03:14:13;;;;;;;4.30;3.90;;;;;;;15.90;88.12;100111.05;102646;1295;599943;-23
2023/09/26 03:16:41;;;;;;;5.20;3.60;;;;;;;15.86;87.40;100109.95;104828;1272;61250;-23
2023/09/26 03:19:09;;;;;;;4.40;4.00;;;;;;;15.63;88.50;100109.34;104893;1267;61211;-23
2023/09/26 03:21:37;;;;;;;4.40;3.60;;;;;;;15.41;89.08;100112.89;104840;1267;72241;-23
2023/09/26 03:24:06;;;;;;;2.80;2.40;;;;;;;15.20;90.58;100115.17;104843;1271;74370;-23
2023/09/26 03:26:33;;;;;;;3.40;3.00;;;;;;;15.50;91.34;100113.90;104861;1270;71607;-23
2023/09/26 03:29:02;;;;;;;3.60;3.30;;;;;;;15.93;88.50;100110.27;102972;1279;2856803;-23
2023/09/26 03:31:30;;;;;;;3.40;3.00;;;;;;;15.93;87.67;100107.64;104931;1265;61087;-23
2023/09/26 03:33:58;;;;;;;4.60;3.70;;;;;;;15.79;87.37;100106.94;104824;1270;70537;-23
2023/09/26 03:36:26;;;;;;;6.30;4.90;;;;;;;15.53;88.29;100109.84;104953;1269;73285;-23
2023/09/26 03:38:54;;;;;;;2.60;2.40;;;;;;;15.32;89.96;100114.00;104881;1270;71399;-23
2023/09/26 03:41:22;;;;;;;3.40;3.10;;;;;;;15.68;89.12;100118.30;105087;1270;61063;-23
2023/09/26 03:51:12;;;;;;;4.30;3.80;;;;;;;15.62;88.31;100116.90;103472;1283;601071;-21
2023/09/26 03:53:41;;;;;;;3.70;2.60;;;;;;;15.36;89.65;100122.97;104829;1270;61187;-21
2023/09/26 03:56:09;;;;;;;3.10;2.70;;;;;;;15.70;89.70;100124.42;104848;1270;61146;-21
2023/09/26 03:58:37;;;;;;;3.60;3.30;;;;;;;16.07;87.56;100125.88;105021;1269;72219;-21
2023/09/26 04:01:13;;;;;;;6.70;4.20;;;;;;;16.07;86.72;100124.30;104871;1270;73112;-21
2023/09/26 04:03:42;;;;;;;3.90;3.50;;;;;;;15.85;87.02;100123.61;102562;1270;3056439;-21
